Time;durP1;ratioP1;P1;durP2;ratioP2;P2;SDS_P1;SDS_P2;PMS_P1;PMS_P2;Temp;Humidity;BMP_temperature;BMP_pressure;BME280_temperature;BME280_humidity;BME280_pressure;Samples;Min_cycle;Max_cycle;Signal;HPM_P1;HPM_P2
2024/02/03 00:01:48;;;;;;;8.37;7.47;;;11.20;99.90;;;;;;4992122;28;20222;-70
2024/02/03 00:04:14;;;;;;;8.80;7.80;;;11.20;99.90;;;;;;4992348;28;20213;-70
2024/02/03 00:06:40;;;;;;;8.17;7.30;;;11.20;99.90;;;;;;4992189;28;20410;-70
2024/02/03 00:09:06;;;;;;;7.83;6.87;;;11.30;99.90;;;;;;4993174;28;20403;-70
2024/02/03 00:11:32;;;;;;;8.37;7.57;;;11.30;99.90;;;;;;4992650;28;20401;-71
2024/02/03 00:13:58;;;;;;;7.57;6.80;;;11.30;99.90;;;;;;4992043;28;20222;-70
2024/02/03 00:16:24;;;;;;;7.80;7.00;;;11.30;99.90;;;;;;4992702;28;20415;-70
2024/02/03 00:18:50;;;;;;;7.83;7.03;;;11.30;99.90;;;;;;4991611;28;20221;-70
2024/02/03 00:21:16;;;;;;;8.00;7.30;;;11.40;99.90;;;;;;4992768;28;20807;-70
2024/02/03 00:23:47;;;;;;;9.30;8.20;;;11.40;99.90;;;;;;4991577;28;20451;-70
2024/02/03 00:26:13;;;;;;;8.20;7.40;;;11.40;99.90;;;;;;4992708;28;20497;-70
2024/02/03 00:28:39;;;;;;;8.03;7.23;;;11.40;99.90;;;;;;4992151;28;20515;-70
2024/02/03 00:31:05;;;;;;;8.13;7.30;;;11.40;99.90;;;;;;4975288;28;20406;-70
2024/02/03 00:33:31;;;;;;;7.90;7.10;;;11.30;99.90;;;;;;4992736;28;20203;-71
2024/02/03 00:35:57;;;;;;;8.73;7.93;;;11.30;99.90;;;;;;4973925;28;20420;-71
2024/02/03 00:38:23;;;;;;;8.90;8.10;;;11.30;99.90;;;;;;4994127;28;20478;-69
2024/02/03 00:40:49;;;;;;;8.80;7.77;;;11.40;99.90;;;;;;4995826;28;20184;-70
2024/02/03 00:43:16;;;;;;;9.40;8.50;;;11.30;99.90;;;;;;4996374;28;20644;-70
2024/02/03 00:45:43;;;;;;;8.90;8.10;;;11.40;99.90;;;;;;4976414;28;20212;-69
2024/02/03 00:48:09;;;;;;;7.90;7.20;;;11.40;99.90;;;;;;4977076;28;20466;-70
2024/02/03 00:50:35;;;;;;;9.10;7.40;;;11.40;99.90;;;;;;4980975;28;21056;-70
2024/02/03 00:53:01;;;;;;;8.23;7.50;;;11.40;99.90;;;;;;4995439;28;20168;-70
2024/02/03 00:55:27;;;;;;;8.40;7.60;;;11.40;99.90;;;;;;4996465;28;20177;-70
2024/02/03 00:57:52;;;;;;;8.57;7.77;;;11.50;99.90;;;;;;4995464;28;20208;-69
2024/02/03 01:00:22;;;;;;;8.10;7.40;;;11.40;99.90;;;;;;4996649;28;20636;-70
2024/02/03 01:02:49;;;;;;;8.23;7.43;;;11.40;99.90;;;;;;4995402;28;20469;-69
2024/02/03 01:05:15;;;;;;;7.60;6.90;;;11.40;99.90;;;;;;4995364;28;20953;-69
2024/02/03 01:07:41;;;;;;;8.03;6.90;;;11.40;99.90;;;;;;4995185;28;20454;-69
2024/02/03 01:10:07;;;;;;;6.70;6.00;;;11.30;99.90;;;;;;4996039;28;20411;-70
2024/02/03 01:12:33;;;;;;;7.00;6.40;;;11.30;99.90;;;;;;4996104;28;20420;-69
2024/02/03 01:14:59;;;;;;;7.00;6.30;;;11.40;99.90;;;;;;4995457;28;20468;-71
2024/02/03 01:17:26;;;;;;;7.13;6.53;;;11.40;99.90;;;;;;4995261;28;20470;-71
2024/02/03 01:19:53;;;;;;;7.50;6.80;;;11.40;99.90;;;;;;4995072;28;20233;-70
2024/02/03 01:22:20;;;;;;;7.60;6.90;;;11.40;99.90;;;;;;4978252;28;20416;-70
2024/02/03 01:24:47;;;;;;;7.30;6.57;;;11.40;99.90;;;;;;4994808;28;20464;-71
2024/02/03 01:27:13;;;;;;;6.93;6.33;;;11.40;99.90;;;;;;4995713;28;20407;-71
2024/02/03 01:29:39;;;;;;;7.37;6.67;;;11.40;99.90;;;;;;4995400;28;20407;-65
2024/02/03 01:32:06;;;;;;;8.37;7.57;;;11.40;99.90;;;;;;4995306;28;20461;-71
2024/02/03 01:34:33;;;;;;;8.13;7.43;;;11.40;99.90;;;;;;4995582;28;20838;-70
2024/02/03 01:36:58;;;;;;;8.00;7.30;;;11.40;99.90;;;;;;4977321;28;21262;-71
2024/02/03 01:39:25;;;;;;;7.87;7.10;;;11.40;99.90;;;;;;4978207;28;20415;-71
2024/02/03 01:41:50;;;;;;;7.93;7.13;;;11.40;99.90;;;;;;4994682;28;20177;-70
2024/02/03 01:44:16;;;;;;;7.33;6.63;;;11.40;99.90;;;;;;4995055;28;20485;-69
2024/02/03 01:46:43;;;;;;;8.13;7.43;;;11.40;99.90;;;;;;4994719;28;20223;-64
2024/02/03 01:49:10;;;;;;;8.10;7.40;;;11.40;99.90;;;;;;4994759;28;20185;-70
2024/02/03 01:51:36;;;;;;;8.50;7.80;;;11.40;99.90;;;;;;4995157;28;20415;-70
2024/02/03 01:54:02;;;;;;;8.30;7.50;;;11.40;99.90;;;;;;4994474;28;20478;-70
2024/02/03 01:56:31;;;;;;;8.53;7.60;;;11.40;99.90;;;;;;4995277;28;20495;-70
2024/02/03 01:58:57;;;;;;;8.60;7.60;;;11.40;99.90;;;;;;4994071;28;20417;-70
2024/02/03 02:01:23;;;;;;;8.80;8.00;;;11.40;99.90;;;;;;4995035;28;20767;-70
2024/02/03 02:03:49;;;;;;;8.47;7.70;;;11.30;99.90;;;;;;4994239;28;20469;-69
2024/02/03 02:06:15;;;;;;;7.90;7.20;;;11.40;99.90;;;;;;4993417;28;20446;-70
2024/02/03 02:08:41;;;;;;;8.67;7.77;;;11.40;99.90;;;;;;4994798;28;20186;-64
2024/02/03 02:11:07;;;;;;;8.40;7.50;;;11.40;99.90;;;;;;4994374;28;20621;-69
2024/02/03 02:13:33;;;;;;;8.93;8.13;;;11.30;99.90;;;;;;4977119;28;20420;-70
2024/02/03 02:15:59;;;;;;;9.90;8.93;;;11.30;99.90;;;;;;4994058;28;20422;-70
2024/02/03 02:18:26;;;;;;;9.50;8.60;;;11.40;99.90;;;;;;4994515;28;20966;-70
2024/02/03 02:20:52;;;;;;;9.30;8.40;;;11.40;99.90;;;;;;4993732;28;20502;-70
2024/02/03 02:23:18;;;;;;;9.20;8.30;;;11.50;99.90;;;;;;4994768;28;20413;-70
2024/02/03 02:25:44;;;;;;;9.60;8.37;;;11.50;99.90;;;;;;4994345;28;20473;-69
2024/02/03 02:28:10;;;;;;;9.30;8.43;;;11.50;99.90;;;;;;4994819;28;20179;-70
2024/02/03 02:30:35;;;;;;;9.57;8.57;;;11.60;99.90;;;;;;4994141;28;20180;-70
2024/02/03 02:33:02;;;;;;;9.10;8.20;;;11.60;99.90;;;;;;4994273;28;20899;-70
2024/02/03 02:35:28;;;;;;;10.67;9.57;;;11.60;99.90;;;;;;4994845;28;20227;-70
2024/02/03 02:37:54;;;;;;;10.37;9.37;;;11.60;99.90;;;;;;4992968;28;20414;-70
2024/02/03 02:40:20;;;;;;;10.00;9.00;;;11.60;99.90;;;;;;4994281;28;20207;-70
2024/02/03 02:42:46;;;;;;;9.20;8.27;;;11.50;99.90;;;;;;4976478;28;20635;-70
2024/02/03 02:45:11;;;;;;;10.30;9.30;;;11.60;99.90;;;;;;4994326;28;20507;-70
2024/02/03 02:47:37;;;;;;;9.27;8.33;;;11.50;99.90;;;;;;4994282;28;20539;-71
2024/02/03 02:50:03;;;;;;;9.40;8.50;;;11.60;99.90;;;;;;4994008;28;20180;-71
2024/02/03 02:52:29;;;;;;;9.10;8.20;;;11.60;99.90;;;;;;4994471;28;20176;-70
2024/02/03 02:54:56;;;;;;;10.33;9.30;;;11.60;99.90;;;;;;4976502;28;20546;-70
2024/02/03 02:57:22;;;;;;;9.77;8.87;;;11.60;99.90;;;;;;4994101;28;20477;-70
2024/02/03 02:59:48;;;;;;;9.93;8.93;;;11.60;99.90;;;;;;4993529;28;20514;-70
2024/02/03 03:02:14;;;;;;;10.43;9.37;;;11.60;99.90;;;;;;4993040;28;20923;-70
2024/02/03 03:04:40;;;;;;;12.37;10.47;;;11.50;99.90;;;;;;4993548;28;20207;-70
2024/02/03 03:07:06;;;;;;;10.90;9.80;;;11.50;99.90;;;;;;4992923;28;20424;-69
2024/02/03 03:09:31;;;;;;;10.40;9.37;;;11.60;99.90;;;;;;4993777;28;20192;-70
2024/02/03 03:11:57;;;;;;;10.47;9.50;;;11.60;99.90;;;;;;4993101;28;20620;-70
2024/02/03 03:14:23;;;;;;;12.53;10.40;;;11.60;99.90;;;;;;4993650;28;20545;-70
2024/02/03 03:16:50;;;;;;;12.10;10.77;;;11.60;99.90;;;;;;4992585;28;20183;-64
2024/02/03 03:19:16;;;;;;;12.37;11.00;;;11.50;99.90;;;;;;4994154;28;20168;-69
2024/02/03 03:21:41;;;;;;;10.50;9.50;;;11.50;99.90;;;;;;4993594;28;20483;-70
2024/02/03 03:24:07;;;;;;;13.63;10.80;;;11.60;99.90;;;;;;4992721;28;21036;-69
2024/02/03 03:26:40;;;;;;;11.70;10.07;;;11.60;99.90;;;;;;4993590;28;20404;-70
2024/02/03 03:29:07;;;;;;;11.03;9.90;;;11.50;99.90;;;;;;4992437;28;20415;-70
2024/02/03 03:31:33;;;;;;;13.70;10.80;;;11.50;99.90;;;;;;4993311;28;20410;-70
2024/02/03 03:33:59;;;;;;;11.67;10.47;;;11.60;99.90;;;;;;4975427;28;20506;-69
2024/02/03 03:36:24;;;;;;;11.40;10.20;;;11.50;99.90;;;;;;4993517;28;20403;-70
2024/02/03 03:38:50;;;;;;;11.20;10.10;;;11.60;99.90;;;;;;4992360;28;20228;-67
2024/02/03 03:41:16;;;;;;;12.30;11.03;;;11.60;99.90;;;;;;4993238;28;20296;-70
2024/02/03 03:43:41;;;;;;;11.50;10.30;;;11.60;99.90;;;;;;4993271;28;20179;-69
2024/02/03 03:46:10;;;;;;;13.03;11.63;;;11.60;99.90;;;;;;4974909;28;20234;-69
2024/02/03 03:48:36;;;;;;;12.27;10.97;;;11.60;99.90;;;;;;4992591;28;20196;-69
2024/02/03 03:51:02;;;;;;;11.33;10.23;;;11.50;99.90;;;;;;4991961;28;20424;-69
2024/02/03 03:53:28;;;;;;;12.77;10.87;;;11.50;99.90;;;;;;4992410;28;20695;-70
2024/02/03 03:55:53;;;;;;;11.40;10.20;;;11.50;99.90;;;;;;4992298;28;20180;-69
2024/02/03 03:58:19;;;;;;;11.93;10.50;;;11.60;99.90;;;;;;4993100;28;20265;-69
2024/02/03 04:00:45;;;;;;;12.53;10.90;;;11.50;99.90;;;;;;4993059;28;20185;-69
2024/02/03 04:03:10;;;;;;;14.70;10.70;;;11.60;99.90;;;;;;4992228;28;20426;-69
2024/02/03 04:05:36;;;;;;;11.60;10.43;;;11.50;99.90;;;;;;4993017;28;20252;-69
2024/02/03 04:08:03;;;;;;;11.73;10.53;;;11.50;99.90;;;;;;4991852;28;20174;-71
2024/02/03 04:10:29;;;;;;;13.13;11.00;;;11.50;99.90;;;;;;4992767;28;20570;-70
2024/02/03 04:12:55;;;;;;;11.90;10.63;;;11.50;99.90;;;;;;4991895;28;20446;-68
2024/02/03 04:15:21;;;;;;;12.17;10.63;;;11.50;99.90;;;;;;4992891;28;20186;-68
2024/02/03 04:17:46;;;;;;;12.07;10.80;;;11.60;99.90;;;;;;4992366;28;20225;-72
2024/02/03 04:20:13;;;;;;;12.50;11.07;;;11.50;99.90;;;;;;4974649;28;20270;-72
2024/02/03 04:22:39;;;;;;;13.63;12.10;;;11.60;99.90;;;;;;4992916;28;20411;-72
2024/02/03 04:25:05;;;;;;;11.00;9.90;;;11.60;99.90;;;;;;4991894;28;20272;-70
2024/02/03 04:27:31;;;;;;;12.47;11.17;;;11.60;99.90;;;;;;4992916;28;20176;-70
2024/02/03 04:29:57;;;;;;;13.00;11.60;;;11.70;99.90;;;;;;4991867;28;20965;-70
2024/02/03 04:32:22;;;;;;;11.50;10.20;;;11.70;99.90;;;;;;4992971;28;20176;-71
2024/02/03 04:34:48;;;;;;;13.97;11.43;;;11.70;99.90;;;;;;4992983;28;20175;-72
2024/02/03 04:37:14;;;;;;;12.03;10.73;;;11.70;99.90;;;;;;4991986;28;20582;-72
2024/02/03 04:39:42;;;;;;;11.87;10.77;;;11.70;99.90;;;;;;4975324;28;20254;-70
2024/02/03 04:42:07;;;;;;;13.07;10.20;;;11.80;99.90;;;;;;4974283;28;20205;-70
2024/02/03 04:44:33;;;;;;;12.17;10.40;;;11.70;99.90;;;;;;4992562;28;20484;-71
2024/02/03 04:46:59;;;;;;;12.33;9.67;;;11.60;99.90;;;;;;4960156;28;20195;-71
2024/02/03 04:49:25;;;;;;;11.70;9.80;;;11.60;99.90;;;;;;4990972;28;20187;-71
2024/02/03 04:51:52;;;;;;;11.70;10.50;;;11.60;99.90;;;;;;4992325;28;20234;-65
2024/02/03 04:54:18;;;;;;;11.20;10.00;;;11.60;99.90;;;;;;4992088;28;20194;-71
2024/02/03 04:56:44;;;;;;;11.83;10.53;;;11.60;99.90;;;;;;4992474;28;20482;-71
2024/02/03 04:59:10;;;;;;;11.30;10.10;;;11.60;99.90;;;;;;4991674;28;20443;-72
2024/02/03 05:01:36;;;;;;;10.90;9.80;;;11.60;99.90;;;;;;4991870;28;20634;-72
2024/02/03 05:04:02;;;;;;;10.20;9.10;;;11.60;99.90;;;;;;4991615;28;20238;-72
2024/02/03 05:06:28;;;;;;;9.90;9.00;;;11.70;99.90;;;;;;4992439;28;20416;-72
2024/02/03 05:08:58;;;;;;;10.00;9.10;;;11.60;99.90;;;;;;4991893;28;20405;-65
2024/02/03 05:11:25;;;;;;;10.17;9.17;;;11.60;99.90;;;;;;4992581;28;20169;-72
2024/02/03 05:13:51;;;;;;;9.17;8.17;;;11.70;99.90;;;;;;4991779;28;20464;-72
2024/02/03 05:16:17;;;;;;;10.70;9.60;;;11.60;99.90;;;;;;4991496;28;20496;-72
2024/02/03 05:18:42;;;;;;;9.60;8.60;;;11.70;99.90;;;;;;4991901;28;21075;-72
2024/02/03 05:21:08;;;;;;;10.30;9.30;;;11.60;99.90;;;;;;4991538;28;20570;-72
2024/02/03 05:23:34;;;;;;;8.50;7.80;;;11.70;99.90;;;;;;4992338;28;20167;-72
2024/02/03 05:26:00;;;;;;;10.20;8.20;;;11.70;99.90;;;;;;4994978;28;20194;-71
2024/02/03 05:28:25;;;;;;;8.43;7.73;;;11.70;99.90;;;;;;4978631;28;20647;-73
2024/02/03 05:30:51;;;;;;;8.73;7.93;;;11.70;99.90;;;;;;4995636;28;20186;-72
2024/02/03 05:33:17;;;;;;;8.03;7.33;;;11.70;99.90;;;;;;4977253;28;20174;-72
2024/02/03 05:35:42;;;;;;;7.63;6.90;;;11.70;99.90;;;;;;4995680;28;20180;-72
2024/02/03 05:38:08;;;;;;;8.50;7.60;;;11.70;99.90;;;;;;4993640;28;20251;-72
2024/02/03 05:40:34;;;;;;;8.20;7.50;;;11.70;99.90;;;;;;4995322;28;20211;-72
2024/02/03 05:43:01;;;;;;;8.10;7.30;;;11.70;99.90;;;;;;4994559;28;20199;-72
2024/02/03 05:45:27;;;;;;;8.63;7.83;;;11.70;99.90;;;;;;4995366;28;20218;-71
2024/02/03 05:47:53;;;;;;;7.70;6.97;;;11.70;99.90;;;;;;4961826;28;20519;-71
2024/02/03 05:50:19;;;;;;;8.03;7.23;;;11.70;99.90;;;;;;4995308;28;20176;-71
2024/02/03 05:52:45;;;;;;;8.90;8.10;;;11.70;99.90;;;;;;4995423;28;20418;-71
2024/02/03 05:55:11;;;;;;;8.50;7.70;;;11.70;99.90;;;;;;4993322;28;20184;-71
2024/02/03 05:57:50;;;;;;;9.40;8.10;;;11.70;99.90;;;;;;4994864;28;20453;-72
2024/02/03 06:00:16;;;;;;;8.10;7.40;;;11.70;99.90;;;;;;4994844;28;20407;-71
2024/02/03 06:02:42;;;;;;;8.63;7.83;;;11.70;99.90;;;;;;4995203;28;20412;-72
2024/02/03 06:05:08;;;;;;;9.30;8.40;;;11.60;99.90;;;;;;4994284;28;20448;-71
2024/02/03 06:07:34;;;;;;;8.37;7.47;;;11.60;99.90;;;;;;4995134;28;20215;-72
2024/02/03 06:10:00;;;;;;;9.77;8.83;;;11.50;99.90;;;;;;4976339;28;20427;-71
2024/02/03 06:12:25;;;;;;;9.50;8.63;;;11.50;99.90;;;;;;4994590;28;20208;-72
2024/02/03 06:14:51;;;;;;;9.90;8.90;;;11.60;99.90;;;;;;4994985;28;20646;-71
2024/02/03 06:17:17;;;;;;;9.50;8.70;;;11.50;99.90;;;;;;4973477;28;20218;-71
2024/02/03 06:19:43;;;;;;;9.23;8.43;;;11.50;99.90;;;;;;4975612;28;20205;-75
2024/02/03 06:22:09;;;;;;;8.73;7.93;;;11.50;99.90;;;;;;4974338;28;20986;-75
2024/02/03 06:24:34;;;;;;;9.47;8.57;;;11.50;99.90;;;;;;4975231;28;20247;-76
2024/02/03 06:27:00;;;;;;;9.20;8.40;;;11.50;99.90;;;;;;4974607;28;20289;-72
2024/02/03 06:29:26;;;;;;;9.60;8.70;;;11.50;99.90;;;;;;4974113;28;20539;-75
2024/02/03 06:31:51;;;;;;;8.20;7.50;;;11.50;99.90;;;;;;4975608;28;20173;-75
2024/02/03 06:34:17;;;;;;;9.00;8.20;;;11.50;99.90;;;;;;4974526;28;20183;-74
2024/02/03 06:36:43;;;;;;;8.47;7.60;;;11.50;99.90;;;;;;4975476;28;20215;-75
2024/02/03 06:39:09;;;;;;;11.20;8.57;;;11.60;99.90;;;;;;4973987;28;20530;-73
2024/02/03 06:41:35;;;;;;;8.53;7.83;;;11.60;99.90;;;;;;4975126;28;20247;-73
2024/02/03 06:44:01;;;;;;;7.47;6.87;;;11.60;99.90;;;;;;4974235;28;20201;-69
2024/02/03 06:46:27;;;;;;;8.70;8.00;;;11.60;99.90;;;;;;4974557;28;20482;-73
2024/02/03 06:48:52;;;;;;;7.00;6.50;;;11.60;99.90;;;;;;4974790;28;20239;-73
2024/02/03 06:51:18;;;;;;;7.77;7.13;;;11.60;99.90;;;;;;4973828;28;20183;-74
2024/02/03 06:53:44;;;;;;;7.87;7.27;;;11.60;99.90;;;;;;4975047;28;20916;-74
2024/02/03 06:56:10;;;;;;;8.43;7.73;;;11.60;99.90;;;;;;4974082;28;20478;-74
2024/02/03 06:58:35;;;;;;;7.93;7.17;;;11.50;99.90;;;;;;4975035;28;20184;-75
2024/02/03 07:01:01;;;;;;;8.07;7.33;;;11.60;99.90;;;;;;4973629;28;20657;-73
2024/02/03 07:03:27;;;;;;;7.97;7.27;;;11.50;99.90;;;;;;4974680;28;20177;-73
2024/02/03 07:05:53;;;;;;;7.60;6.90;;;11.60;99.90;;;;;;4973134;28;20211;-73
2024/02/03 07:08:19;;;;;;;7.53;6.93;;;11.60;99.90;;;;;;4972640;28;20784;-74
2024/02/03 07:10:45;;;;;;;7.10;6.60;;;11.70;99.90;;;;;;4974612;28;20424;-74
2024/02/03 07:13:11;;;;;;;7.17;6.60;;;11.80;99.90;;;;;;4973900;28;20235;-74
2024/02/03 07:15:37;;;;;;;6.93;6.43;;;11.80;99.90;;;;;;4974630;28;20184;-74
2024/02/03 07:18:02;;;;;;;7.17;6.60;;;11.80;99.90;;;;;;4984455;28;20473;-72
2024/02/03 07:20:28;;;;;;;6.67;6.17;;;11.70;99.90;;;;;;4993152;28;20430;-67
2024/02/03 07:22:54;;;;;;;7.70;7.00;;;11.70;99.90;;;;;;4992334;28;20512;-67
2024/02/03 07:25:20;;;;;;;7.13;6.53;;;11.70;99.90;;;;;;4991809;28;20287;-67
2024/02/03 07:27:45;;;;;;;7.07;6.53;;;11.70;99.90;;;;;;4993083;28;20188;-68
2024/02/03 07:30:11;;;;;;;7.13;6.53;;;11.80;99.90;;;;;;4992878;28;20238;-67
2024/02/03 07:32:37;;;;;;;7.80;7.10;;;11.80;99.90;;;;;;4976584;28;20513;-67
2024/02/03 07:35:03;;;;;;;7.00;6.43;;;11.70;99.90;;;;;;4992529;28;20435;-67
2024/02/03 07:37:29;;;;;;;6.23;5.77;;;11.70;99.90;;;;;;4993251;28;20238;-67
2024/02/03 07:39:54;;;;;;;6.80;6.30;;;11.70;99.90;;;;;;4993037;28;20422;-67
2024/02/03 07:42:20;;;;;;;6.30;5.90;;;11.80;99.90;;;;;;4992921;28;20653;-67
2024/02/03 07:44:47;;;;;;;6.60;6.10;;;11.70;99.90;;;;;;4993406;28;20207;-67
2024/02/03 07:47:13;;;;;;;7.30;6.70;;;11.70;99.90;;;;;;4991740;28;20180;-66
2024/02/03 07:49:39;;;;;;;7.07;6.50;;;11.70;99.90;;;;;;4992167;28;20423;-67
2024/02/03 07:52:05;;;;;;;8.30;7.60;;;11.60;99.90;;;;;;4994770;28;20455;-63
2024/02/03 07:54:32;;;;;;;7.23;6.73;;;11.70;99.90;;;;;;4992971;28;20684;-68
2024/02/03 07:56:57;;;;;;;8.27;7.67;;;11.70;99.90;;;;;;4993085;28;20487;-67
2024/02/03 07:59:23;;;;;;;7.80;7.30;;;11.70;99.90;;;;;;4992255;28;21136;-68
2024/02/03 08:01:49;;;;;;;7.90;7.30;;;11.70;99.90;;;;;;4992942;28;20298;-67
2024/02/03 08:04:14;;;;;;;7.30;6.80;;;11.70;99.90;;;;;;4970795;28;20199;-67
2024/02/03 08:06:40;;;;;;;7.73;7.13;;;11.70;99.90;;;;;;4991949;28;20191;-68
2024/02/03 08:09:07;;;;;;;7.80;7.20;;;11.70;99.90;;;;;;4989563;28;20183;-63
2024/02/03 08:11:32;;;;;;;7.57;6.97;;;11.60;99.90;;;;;;4988833;28;20183;-66
2024/02/03 08:13:58;;;;;;;8.17;7.37;;;11.70;99.90;;;;;;4989245;28;20441;-67
2024/02/03 08:16:24;;;;;;;7.87;7.37;;;11.70;99.90;;;;;;4991845;28;20173;-67
2024/02/03 08:18:50;;;;;;;8.00;7.43;;;11.80;99.90;;;;;;4992822;28;20219;-68
2024/02/03 08:21:15;;;;;;;8.47;7.67;;;11.80;99.90;;;;;;4991777;28;20194;-67
2024/02/03 08:23:41;;;;;;;8.33;7.53;;;11.80;99.90;;;;;;4992888;28;20186;-68
2024/02/03 08:26:07;;;;;;;8.63;7.93;;;11.70;99.90;;;;;;4992149;28;20191;-64
2024/02/03 08:28:32;;;;;;;7.43;6.83;;;11.70;99.90;;;;;;4992452;28;20181;-67
2024/02/03 08:30:58;;;;;;;8.40;7.80;;;11.80;99.90;;;;;;4992558;28;20181;-68
2024/02/03 08:33:25;;;;;;;6.93;6.43;;;11.80;99.90;;;;;;4992314;28;20549;-68
2024/02/03 08:35:51;;;;;;;8.23;7.60;;;11.70;99.90;;;;;;4992984;28;20611;-67
2024/02/03 08:38:17;;;;;;;8.83;7.00;;;11.70;99.90;;;;;;4992301;28;20483;-67
2024/02/03 08:40:44;;;;;;;7.30;6.80;;;11.80;99.90;;;;;;4974470;28;20915;-67
2024/02/03 08:43:11;;;;;;;7.20;6.70;;;11.80;99.90;;;;;;4993122;28;20420;-67
2024/02/03 08:45:37;;;;;;;7.70;7.10;;;11.90;99.90;;;;;;4992475;28;20887;-67
2024/02/03 08:48:03;;;;;;;8.00;7.40;;;11.90;99.90;;;;;;4991780;28;20794;-67
2024/02/03 08:50:29;;;;;;;7.80;7.10;;;12.00;99.90;;;;;;4992001;28;20928;-67
2024/02/03 08:52:55;;;;;;;7.37;6.87;;;11.90;99.90;;;;;;4975035;28;20429;-68
2024/02/03 08:55:21;;;;;;;7.40;6.80;;;12.00;99.90;;;;;;4991677;28;20169;-68
2024/02/03 08:57:46;;;;;;;7.60;7.00;;;12.00;99.90;;;;;;4992882;28;20174;-68
2024/02/03 09:00:13;;;;;;;7.60;7.00;;;12.00;99.90;;;;;;4994508;28;20179;-68
2024/02/03 09:02:38;;;;;;;7.20;6.60;;;12.00;99.90;;;;;;4979013;28;20631;-64
2024/02/03 09:05:05;;;;;;;7.07;6.47;;;12.00;99.90;;;;;;4967614;28;20546;-64
2024/02/03 09:07:34;;;;;;;7.53;7.03;;;12.40;99.90;;;;;;4977024;28;20184;-63
2024/02/03 09:10:00;;;;;;;6.63;6.23;;;12.80;99.90;;;;;;4994002;28;20935;-64
2024/02/03 09:12:26;;;;;;;7.27;6.67;;;13.20;99.90;;;;;;4995793;28;20508;-63
2024/02/03 09:14:52;;;;;;;6.60;6.20;;;13.50;99.90;;;;;;4996532;28;20500;-63
2024/02/03 09:17:18;;;;;;;6.73;6.23;;;13.80;99.90;;;;;;4991772;28;20258;-62
2024/02/03 09:19:43;;;;;;;6.57;6.13;;;14.00;99.90;;;;;;4985241;28;20177;-63
2024/02/03 09:22:10;;;;;;;5.80;5.47;;;14.20;99.90;;;;;;4995323;28;20628;-63
2024/02/03 09:24:35;;;;;;;5.90;5.50;;;14.40;99.90;;;;;;4995782;28;20203;-63
2024/02/03 09:27:02;;;;;;;5.73;5.33;;;14.50;99.90;;;;;;4978935;28;20422;-63
2024/02/03 09:29:28;;;;;;;6.43;5.93;;;14.70;99.90;;;;;;4994985;28;20182;-62
2024/02/03 09:31:53;;;;;;;5.63;5.20;;;14.80;99.90;;;;;;4996120;28;20411;-62
2024/02/03 09:34:19;;;;;;;5.97;5.47;;;14.80;99.90;;;;;;4994890;28;20188;-62
2024/02/03 09:36:45;;;;;;;5.17;4.87;;;14.90;99.90;;;;;;4995072;28;20196;-63
2024/02/03 09:39:11;;;;;;;5.80;5.30;;;15.00;99.90;;;;;;4995303;28;20656;-62
2024/02/03 09:41:37;;;;;;;5.53;5.10;;;15.00;99.90;;;;;;4978707;28;20178;-63
2024/02/03 09:44:04;;;;;;;7.10;6.50;;;15.00;99.90;;;;;;4995334;28;20544;-62
2024/02/03 09:46:30;;;;;;;7.20;6.53;;;15.00;99.90;;;;;;4994764;28;20456;-62
2024/02/03 09:48:57;;;;;;;9.10;8.30;;;15.10;99.90;;;;;;4995316;28;20453;-63
2024/02/03 09:51:24;;;;;;;6.67;6.17;;;15.10;99.90;;;;;;4975551;28;20452;-62
2024/02/03 09:53:51;;;;;;;7.20;6.60;;;15.20;99.90;;;;;;4995419;28;20425;-62
2024/02/03 09:56:17;;;;;;;8.27;7.57;;;15.20;99.90;;;;;;4994075;28;20421;-63
2024/02/03 09:58:43;;;;;;;47.93;32.33;;;15.30;99.90;;;;;;4995319;28;20422;-63
2024/02/03 10:01:09;;;;;;;72.33;54.57;;;15.30;99.90;;;;;;4995088;28;20175;-62
2024/02/03 10:03:35;;;;;;;9.53;8.63;;;15.40;99.90;;;;;;4995525;28;20421;-62
2024/02/03 10:06:02;;;;;;;12.07;10.77;;;15.40;99.90;;;;;;4995328;28;20228;-62
2024/02/03 10:08:29;;;;;;;10.40;9.50;;;15.40;99.90;;;;;;4994851;28;20510;-62
2024/02/03 10:10:56;;;;;;;10.47;9.50;;;15.40;99.90;;;;;;4994996;28;20410;-62
2024/02/03 10:13:24;;;;;;;9.47;8.30;;;15.40;99.90;;;;;;4994813;28;20396;-62
2024/02/03 10:16:03;;;;;;;10.33;9.33;;;15.40;99.90;;;;;;4994942;28;20508;-63
2024/02/03 10:18:33;;;;;;;8.93;8.03;;;15.50;99.90;;;;;;4991692;28;20663;-63
2024/02/03 10:21:00;;;;;;;7.90;7.30;;;15.50;99.90;;;;;;4994494;28;20504;-63
2024/02/03 10:23:27;;;;;;;7.77;7.07;;;15.50;99.90;;;;;;4994160;28;20442;-64
2024/02/03 10:25:57;;;;;;;6.90;6.40;;;15.50;99.90;;;;;;4994512;28;20532;-63
2024/02/03 10:28:23;;;;;;;7.47;6.77;;;15.50;99.90;;;;;;4993561;28;20820;-63
2024/02/03 10:30:50;;;;;;;6.70;6.13;;;15.50;99.90;;;;;;4977311;28;20463;-63
2024/02/03 10:33:16;;;;;;;27.23;21.93;;;15.60;99.90;;;;;;4993548;28;20418;-63
2024/02/03 10:35:45;;;;;;;74.70;54.70;;;15.50;99.90;;;;;;4994492;28;20415;-63
2024/02/03 10:38:12;;;;;;;9.20;8.30;;;15.60;99.90;;;;;;4976464;28;20487;-63
2024/02/03 10:40:38;;;;;;;11.03;9.97;;;15.60;99.90;;;;;;4993895;28;20427;-64
2024/02/03 10:43:17;;;;;;;9.60;8.73;;;15.60;99.90;;;;;;4994170;28;20433;-64
2024/02/03 10:45:45;;;;;;;7.37;6.77;;;15.50;99.90;;;;;;4994036;28;20445;-64
2024/02/03 10:48:18;;;;;;;9.40;8.60;;;15.50;99.90;;;;;;4993910;28;20524;-64
2024/02/03 10:50:50;;;;;;;8.43;7.63;;;15.50;99.90;;;;;;4994169;28;20472;-63
2024/02/03 10:53:21;;;;;;;7.07;6.47;;;15.50;99.90;;;;;;4976336;28;20418;-62
2024/02/03 10:55:54;;;;;;;8.73;8.00;;;15.50;99.90;;;;;;4994599;28;20816;-63
2024/02/03 10:58:28;;;;;;;7.07;6.53;;;15.50;99.90;;;;;;4993913;28;20401;-63
2024/02/03 11:00:56;;;;;;;9.80;9.00;;;15.50;99.90;;;;;;4994091;28;20414;-62
2024/02/03 11:03:22;;;;;;;8.47;7.77;;;15.40;99.90;;;;;;4960185;28;20413;-64
2024/02/03 11:05:54;;;;;;;9.27;8.47;;;15.40;99.90;;;;;;4994248;28;20457;-63
2024/02/03 11:08:20;;;;;;;7.43;6.83;;;15.30;99.90;;;;;;4993667;28;20401;-63
2024/02/03 11:10:50;;;;;;;8.10;7.40;;;15.40;99.90;;;;;;4994275;28;20418;-63
2024/02/03 11:13:27;;;;;;;9.17;8.47;;;15.40;99.90;;;;;;4993296;28;20423;-63
2024/02/03 11:15:57;;;;;;;7.60;6.97;;;15.30;99.90;;;;;;4993735;28;20962;-63
2024/02/03 11:18:23;;;;;;;9.47;7.90;;;15.30;99.90;;;;;;4992769;28;20462;-63
2024/02/03 11:20:48;;;;;;;8.57;7.87;;;15.40;99.90;;;;;;4992532;28;20495;-64
2024/02/03 11:23:14;;;;;;;9.47;8.40;;;15.50;99.90;;;;;;4992947;28;20265;-63
2024/02/03 11:25:46;;;;;;;9.00;8.20;;;15.40;99.90;;;;;;4992765;28;20209;-62
2024/02/03 11:28:13;;;;;;;7.80;7.20;;;15.40;99.90;;;;;;4993618;28;20516;-63
2024/02/03 11:30:39;;;;;;;7.80;7.20;;;15.40;99.90;;;;;;4993903;28;20495;-63
2024/02/03 11:33:05;;;;;;;8.43;7.70;;;15.40;99.90;;;;;;4993844;28;20548;-63
2024/02/03 11:35:31;;;;;;;8.60;7.80;;;15.50;99.90;;;;;;4992890;28;20923;-63
2024/02/03 11:38:08;;;;;;;8.53;7.83;;;15.50;99.90;;;;;;4974407;28;20406;-63
2024/02/03 11:40:46;;;;;;;8.20;7.60;;;15.40;99.90;;;;;;4973668;28;20791;-65
2024/02/03 11:43:15;;;;;;;7.23;6.63;;;15.50;99.90;;;;;;4974301;28;20415;-63
2024/02/03 11:45:48;;;;;;;8.37;7.67;;;15.50;99.90;;;;;;4974374;28;20454;-64
2024/02/03 11:48:15;;;;;;;7.70;7.10;;;15.40;99.90;;;;;;4974730;28;20521;-63
2024/02/03 11:50:41;;;;;;;7.33;6.73;;;15.40;99.90;;;;;;4982614;28;20444;-63
2024/02/03 11:53:07;;;;;;;7.50;6.77;;;15.40;99.90;;;;;;4992709;28;21037;-63
2024/02/03 11:55:34;;;;;;;7.27;6.50;;;15.40;99.90;;;;;;4992330;28;20422;-64
2024/02/03 11:58:00;;;;;;;7.67;6.97;;;15.40;99.90;;;;;;4976123;28;20776;-62
2024/02/03 12:00:26;;;;;;;9.13;8.23;;;15.50;99.90;;;;;;4992415;28;20409;-62
2024/02/03 12:02:52;;;;;;;7.40;6.70;;;15.50;99.90;;;;;;4993340;28;20179;-62
2024/02/03 12:05:18;;;;;;;7.03;6.43;;;15.50;99.90;;;;;;4975243;28;20605;-62
2024/02/03 12:07:44;;;;;;;6.67;6.17;;;15.60;99.90;;;;;;4993225;28;21008;-62
2024/02/03 12:10:12;;;;;;;6.53;6.03;;;15.60;99.90;;;;;;4991286;28;21232;-61
2024/02/03 12:12:39;;;;;;;6.87;6.37;;;15.70;99.90;;;;;;4970862;28;20457;-62
2024/02/03 12:15:07;;;;;;;7.03;6.47;;;15.70;99.90;;;;;;4989346;28;20919;-62
2024/02/03 12:17:36;;;;;;;6.93;6.40;;;15.70;99.90;;;;;;4988349;28;21007;-62
2024/02/03 12:20:03;;;;;;;6.60;6.00;;;15.80;99.90;;;;;;4988962;28;20829;-61
2024/02/03 12:22:29;;;;;;;6.90;6.30;;;15.80;99.90;;;;;;4990349;28;20413;-62
2024/02/03 12:24:55;;;;;;;6.77;6.30;;;15.70;99.90;;;;;;4992778;28;20771;-64
2024/02/03 12:27:21;;;;;;;6.60;6.10;;;15.70;99.90;;;;;;4990938;28;20437;-61
2024/02/03 12:29:48;;;;;;;6.90;6.40;;;15.80;99.90;;;;;;4992589;28;20265;-62
2024/02/03 12:32:14;;;;;;;5.00;4.70;;;15.80;99.90;;;;;;4992680;28;20167;-62
2024/02/03 12:34:40;;;;;;;4.83;4.53;;;15.90;99.90;;;;;;4995414;28;20430;-62
2024/02/03 12:37:05;;;;;;;5.30;4.90;;;15.90;99.90;;;;;;4996264;28;20798;-62
2024/02/03 12:39:31;;;;;;;5.13;4.83;;;15.90;99.90;;;;;;4995368;28;20179;-70